Aérodrome :
LOGIN :

S'inscrire | Disclaimer

   EN    FR    IT 

 










Légende :    VFR   VFR Marginal   IFR   IFR Intensif   IFR Très Intensif
Visi : 
Plafond : 
>= 8 km
>= 3000ft
5 à 8 km
1000 à 3000 ft
1500m à 5 km
500 à 1000 ft
800 à 1500m
200 à 500 ft
< 800m
< 200 ft
Symboles :   Orages  Brouillard  Fortes neiges  Fortes précipitations  Vent > 20 kt
SIGMETs :   Divers  Orages  Givrage  Turbulence  Onde Orograph.  Cendres Volcan.






- Altitude de l'aérodrome : 112 ft
- Code IATA : SVQ


LEZL - Sevilla San Pablo

DERNIER METAR :
  • 191500Z 01015KT 340V040 CAVOK 16/06 Q1018 NOSIG

METARs EXPIRÉS :
  • 191430Z 01011KT 340V040 CAVOK 17/06 Q1018 NOSIG
  • 191400Z 03019KT 360V060 CAVOK 16/05 Q1018 NOSIG
  • 191330Z 02015KT 350V050 CAVOK 16/05 Q1018 NOSIG
  • 191300Z 36008KT 320V050 CAVOK 16/07 Q1019 NOSIG
  • 191230Z 01009KT 330V050 9999 FEW035 15/07 Q1020 NOSIG

TAF TAF LEZL
Valide du 19 à 15h jusqu'au 20 à 15h UTC


191400Z 1915/2015 03015KT 9999 FEW025 TX14/2015Z TN07/2007Z
TEMPO 1915/1922 03015G25KT
TEMPO 2010/2015 03020G30KT



MET'MAP, la Météo Aéronautique d'un coup d'oeil ! - Copyright ORBIFLY Décembre 2007 - Disclaimer

ORBIFLY MET'MAP TEAM :

Programmation & Développement : Alexandra Zaïnal
Sur une idée originale de : Baudouin d'Aumeries
Assistance à la programmation : Marc-Olivier Méhu
Soutien technique & logistique : Manuel Goepfert

Contact : metmap@orbifly.com




SOURCES & CREDITS :

   NOAA